sensor_id;sensor_type;location;lat;lon;timestamp;P1;durP1;ratioP1;P2;durP2;ratioP2
51943;SDS011;37969;53.132;6.370;2023-11-22T00:00:49;14.50;;;10.18;;
51943;SDS011;37969;53.132;6.370;2023-11-22T00:03:18;17.80;;;12.00;;
51943;SDS011;37969;53.132;6.370;2023-11-22T00:05:45;17.98;;;11.38;;
51943;SDS011;37969;53.132;6.370;2023-11-22T00:08:12;17.52;;;11.80;;
51943;SDS011;37969;53.132;6.370;2023-11-22T00:10:38;16.50;;;11.32;;
51943;SDS011;37969;53.132;6.370;2023-11-22T00:13:07;18.35;;;11.73;;
51943;SDS011;37969;53.132;6.370;2023-11-22T00:15:33;17.13;;;11.05;;
51943;SDS011;37969;53.132;6.370;2023-11-22T00:18:01;16.95;;;10.90;;
51943;SDS011;37969;53.132;6.370;2023-11-22T00:20:31;14.40;;;10.93;;
51943;SDS011;37969;53.132;6.370;2023-11-22T00:23:03;15.88;;;11.13;;
51943;SDS011;37969;53.132;6.370;2023-11-22T00:25:30;16.02;;;11.15;;
51943;SDS011;37969;53.132;6.370;2023-11-22T00:27:59;17.52;;;10.90;;
51943;SDS011;37969;53.132;6.370;2023-11-22T00:30:31;14.52;;;11.35;;
51943;SDS011;37969;53.132;6.370;2023-11-22T00:32:57;16.52;;;11.48;;
51943;SDS011;37969;53.132;6.370;2023-11-22T00:35:30;16.75;;;11.52;;
51943;SDS011;37969;53.132;6.370;2023-11-22T00:37:57;18.65;;;11.32;;
51943;SDS011;37969;53.132;6.370;2023-11-22T00:40:29;17.40;;;11.30;;
51943;SDS011;37969;53.132;6.370;2023-11-22T00:42:57;15.52;;;11.00;;
51943;SDS011;37969;53.132;6.370;2023-11-22T00:45:29;18.58;;;11.05;;
51943;SDS011;37969;53.132;6.370;2023-11-22T00:47:59;17.60;;;10.40;;
51943;SDS011;37969;53.132;6.370;2023-11-22T00:50:28;17.10;;;10.70;;
51943;SDS011;37969;53.132;6.370;2023-11-22T00:52:55;18.23;;;11.38;;
51943;SDS011;37969;53.132;6.370;2023-11-22T00:55:23;20.98;;;11.45;;
51943;SDS011;37969;53.132;6.370;2023-11-22T00:57:52;14.48;;;10.07;;
51943;SDS011;37969;53.132;6.370;2023-11-22T01:00:21;19.58;;;11.02;;
51943;SDS011;37969;53.132;6.370;2023-11-22T01:02:49;18.00;;;11.30;;
51943;SDS011;37969;53.132;6.370;2023-11-22T01:05:16;14.93;;;10.60;;
51943;SDS011;37969;53.132;6.370;2023-11-22T01:07:43;17.00;;;11.98;;
51943;SDS011;37969;53.132;6.370;2023-11-22T01:10:13;17.35;;;10.70;;
51943;SDS011;37969;53.132;6.370;2023-11-22T01:12:42;15.70;;;10.95;;
51943;SDS011;37969;53.132;6.370;2023-11-22T01:15:09;17.95;;;11.25;;
51943;SDS011;37969;53.132;6.370;2023-11-22T01:17:35;19.85;;;10.77;;
51943;SDS011;37969;53.132;6.370;2023-11-22T01:20:02;21.08;;;11.10;;
51943;SDS011;37969;53.132;6.370;2023-11-22T01:22:32;17.15;;;11.57;;
51943;SDS011;37969;53.132;6.370;2023-11-22T01:24:59;15.63;;;10.93;;
51943;SDS011;37969;53.132;6.370;2023-11-22T01:27:26;20.65;;;11.52;;
51943;SDS011;37969;53.132;6.370;2023-11-22T01:29:54;18.27;;;10.93;;
51943;SDS011;37969;53.132;6.370;2023-11-22T01:32:22;18.00;;;11.13;;
51943;SDS011;37969;53.132;6.370;2023-11-22T01:34:51;16.45;;;11.27;;
51943;SDS011;37969;53.132;6.370;2023-11-22T01:37:18;19.08;;;11.20;;
51943;SDS011;37969;53.132;6.370;2023-11-22T01:39:48;19.45;;;11.25;;
51943;SDS011;37969;53.132;6.370;2023-11-22T01:42:19;19.85;;;11.13;;
51943;SDS011;37969;53.132;6.370;2023-11-22T01:44:51;16.33;;;11.23;;
51943;SDS011;37969;53.132;6.370;2023-11-22T01:47:18;19.55;;;10.90;;
51943;SDS011;37969;53.132;6.370;2023-11-22T01:49:47;18.25;;;11.70;;
51943;SDS011;37969;53.132;6.370;2023-11-22T01:52:15;18.77;;;10.93;;
51943;SDS011;37969;53.132;6.370;2023-11-22T01:54:42;19.85;;;11.80;;
51943;SDS011;37969;53.132;6.370;2023-11-22T01:57:09;17.15;;;11.15;;
51943;SDS011;37969;53.132;6.370;2023-11-22T01:59:39;19.90;;;10.98;;
51943;SDS011;37969;53.132;6.370;2023-11-22T02:02:06;23.38;;;11.93;;
51943;SDS011;37969;53.132;6.370;2023-11-22T02:04:33;17.85;;;11.57;;
51943;SDS011;37969;53.132;6.370;2023-11-22T02:06:59;17.83;;;11.20;;
51943;SDS011;37969;53.132;6.370;2023-11-22T02:09:25;18.83;;;10.85;;
51943;SDS011;37969;53.132;6.370;2023-11-22T02:14:25;19.05;;;11.90;;
51943;SDS011;37969;53.132;6.370;2023-11-22T02:16:51;18.13;;;11.32;;
51943;SDS011;37969;53.132;6.370;2023-11-22T02:19:18;20.23;;;12.20;;
51943;SDS011;37969;53.132;6.370;2023-11-22T02:21:48;18.42;;;11.93;;
51943;SDS011;37969;53.132;6.370;2023-11-22T02:24:14;17.40;;;11.43;;
51943;SDS011;37969;53.132;6.370;2023-11-22T02:26:44;18.52;;;11.77;;
51943;SDS011;37969;53.132;6.370;2023-11-22T02:29:11;16.52;;;10.75;;
51943;SDS011;37969;53.132;6.370;2023-11-22T02:31:39;18.55;;;12.15;;
51943;SDS011;37969;53.132;6.370;2023-11-22T02:34:08;18.60;;;11.82;;
51943;SDS011;37969;53.132;6.370;2023-11-22T02:36:34;19.50;;;10.88;;
51943;SDS011;37969;53.132;6.370;2023-11-22T02:39:05;21.17;;;10.43;;
51943;SDS011;37969;53.132;6.370;2023-11-22T02:41:38;15.77;;;9.95;;
51943;SDS011;37969;53.132;6.370;2023-11-22T02:44:08;19.83;;;10.43;;
51943;SDS011;37969;53.132;6.370;2023-11-22T02:46:42;18.70;;;10.95;;
51943;SDS011;37969;53.132;6.370;2023-11-22T02:49:08;22.20;;;11.07;;
51943;SDS011;37969;53.132;6.370;2023-11-22T02:51:35;15.57;;;10.82;;
51943;SDS011;37969;53.132;6.370;2023-11-22T02:54:05;19.33;;;10.57;;
51943;SDS011;37969;53.132;6.370;2023-11-22T02:56:33;15.63;;;10.02;;
51943;SDS011;37969;53.132;6.370;2023-11-22T02:58:59;15.88;;;10.38;;
51943;SDS011;37969;53.132;6.370;2023-11-22T03:01:25;20.15;;;11.15;;
51943;SDS011;37969;53.132;6.370;2023-11-22T03:03:52;20.27;;;11.68;;
51943;SDS011;37969;53.132;6.370;2023-11-22T03:06:19;16.88;;;10.23;;
51943;SDS011;37969;53.132;6.370;2023-11-22T03:08:46;18.08;;;10.05;;
51943;SDS011;37969;53.132;6.370;2023-11-22T03:11:17;18.65;;;10.35;;
51943;SDS011;37969;53.132;6.370;2023-11-22T03:13:45;15.45;;;9.70;;
51943;SDS011;37969;53.132;6.370;2023-11-22T03:16:11;16.52;;;9.45;;
51943;SDS011;37969;53.132;6.370;2023-11-22T03:18:37;16.48;;;10.35;;
51943;SDS011;37969;53.132;6.370;2023-11-22T03:21:05;18.55;;;11.35;;
51943;SDS011;37969;53.132;6.370;2023-11-22T03:23:31;20.02;;;11.00;;
51943;SDS011;37969;53.132;6.370;2023-11-22T03:26:03;18.63;;;12.25;;
51943;SDS011;37969;53.132;6.370;2023-11-22T03:28:29;20.17;;;11.43;;
51943;SDS011;37969;53.132;6.370;2023-11-22T03:33:30;20.55;;;11.55;;
51943;SDS011;37969;53.132;6.370;2023-11-22T03:35:57;18.02;;;10.73;;
51943;SDS011;37969;53.132;6.370;2023-11-22T03:38:24;19.33;;;10.48;;
51943;SDS011;37969;53.132;6.370;2023-11-22T03:40:52;18.52;;;11.60;;
51943;SDS011;37969;53.132;6.370;2023-11-22T03:43:19;23.42;;;12.48;;
51943;SDS011;37969;53.132;6.370;2023-11-22T03:45:46;18.27;;;11.05;;
51943;SDS011;37969;53.132;6.370;2023-11-22T03:48:15;18.45;;;11.40;;
51943;SDS011;37969;53.132;6.370;2023-11-22T03:50:42;16.58;;;10.80;;
51943;SDS011;37969;53.132;6.370;2023-11-22T03:53:12;15.27;;;9.25;;
51943;SDS011;37969;53.132;6.370;2023-11-22T03:55:39;17.48;;;9.52;;
51943;SDS011;37969;53.132;6.370;2023-11-22T03:58:05;16.92;;;9.77;;
51943;SDS011;37969;53.132;6.370;2023-11-22T04:00:38;15.73;;;9.65;;
51943;SDS011;37969;53.132;6.370;2023-11-22T04:03:04;20.63;;;10.45;;
51943;SDS011;37969;53.132;6.370;2023-11-22T04:05:32;14.93;;;9.18;;
51943;SDS011;37969;53.132;6.370;2023-11-22T04:08:01;16.23;;;9.77;;
51943;SDS011;37969;53.132;6.370;2023-11-22T04:10:28;25.90;;;13.13;;
51943;SDS011;37969;53.132;6.370;2023-11-22T04:12:56;22.63;;;12.95;;
51943;SDS011;37969;53.132;6.370;2023-11-22T04:15:24;27.13;;;13.52;;
51943;SDS011;37969;53.132;6.370;2023-11-22T04:17:53;25.05;;;13.63;;
51943;SDS011;37969;53.132;6.370;2023-11-22T04:20:26;25.88;;;13.63;;
51943;SDS011;37969;53.132;6.370;2023-11-22T04:22:55;23.65;;;13.30;;
51943;SDS011;37969;53.132;6.370;2023-11-22T04:25:22;20.02;;;13.43;;
51943;SDS011;37969;53.132;6.370;2023-11-22T04:27:48;27.55;;;15.85;;
51943;SDS011;37969;53.132;6.370;2023-11-22T04:30:18;28.25;;;14.00;;
51943;SDS011;37969;53.132;6.370;2023-11-22T04:32:49;25.95;;;12.80;;
51943;SDS011;37969;53.132;6.370;2023-11-22T04:35:22;20.27;;;12.35;;
51943;SDS011;37969;53.132;6.370;2023-11-22T04:37:52;22.42;;;11.20;;
51943;SDS011;37969;53.132;6.370;2023-11-22T04:40:23;16.73;;;11.05;;
51943;SDS011;37969;53.132;6.370;2023-11-22T04:42:56;20.95;;;11.68;;
51943;SDS011;37969;53.132;6.370;2023-11-22T04:45:22;23.13;;;12.60;;
51943;SDS011;37969;53.132;6.370;2023-11-22T04:47:53;21.73;;;11.95;;
51943;SDS011;37969;53.132;6.370;2023-11-22T04:50:23;23.42;;;12.25;;
51943;SDS011;37969;53.132;6.370;2023-11-22T04:52:49;26.38;;;13.07;;
51943;SDS011;37969;53.132;6.370;2023-11-22T04:55:17;27.92;;;12.68;;
51943;SDS011;37969;53.132;6.370;2023-11-22T04:57:49;28.48;;;13.77;;
51943;SDS011;37969;53.132;6.370;2023-11-22T05:00:19;28.33;;;14.13;;
51943;SDS011;37969;53.132;6.370;2023-11-22T05:02:52;26.33;;;15.07;;
51943;SDS011;37969;53.132;6.370;2023-11-22T05:05:20;32.70;;;13.98;;
51943;SDS011;37969;53.132;6.370;2023-11-22T05:07:47;24.92;;;12.65;;
51943;SDS011;37969;53.132;6.370;2023-11-22T05:10:14;23.58;;;12.43;;
51943;SDS011;37969;53.132;6.370;2023-11-22T05:12:43;27.17;;;12.90;;
51943;SDS011;37969;53.132;6.370;2023-11-22T05:15:10;25.02;;;13.52;;
51943;SDS011;37969;53.132;6.370;2023-11-22T05:17:39;32.03;;;15.82;;
51943;SDS011;37969;53.132;6.370;2023-11-22T05:20:07;22.13;;;12.23;;
51943;SDS011;37969;53.132;6.370;2023-11-22T05:22:36;28.90;;;13.82;;
51943;SDS011;37969;53.132;6.370;2023-11-22T05:25:05;29.45;;;14.48;;
51943;SDS011;37969;53.132;6.370;2023-11-22T05:27:36;25.42;;;13.63;;
51943;SDS011;37969;53.132;6.370;2023-11-22T05:32:32;31.92;;;15.32;;
51943;SDS011;37969;53.132;6.370;2023-11-22T05:35:01;28.27;;;14.27;;
51943;SDS011;37969;53.132;6.370;2023-11-22T05:37:31;25.02;;;14.68;;
51943;SDS011;37969;53.132;6.370;2023-11-22T05:39:59;30.38;;;14.20;;
51943;SDS011;37969;53.132;6.370;2023-11-22T05:42:29;24.02;;;12.82;;
51943;SDS011;37969;53.132;6.370;2023-11-22T05:44:57;23.80;;;13.85;;
51943;SDS011;37969;53.132;6.370;2023-11-22T05:47:30;29.08;;;14.30;;
51943;SDS011;37969;53.132;6.370;2023-11-22T05:49:59;26.15;;;14.45;;
51943;SDS011;37969;53.132;6.370;2023-11-22T05:52:29;23.70;;;13.82;;
51943;SDS011;37969;53.132;6.370;2023-11-22T05:54:55;20.90;;;12.30;;
51943;SDS011;37969;53.132;6.370;2023-11-22T05:57:21;25.10;;;13.95;;
51943;SDS011;37969;53.132;6.370;2023-11-22T05:59:49;28.35;;;15.52;;
51943;SDS011;37969;53.132;6.370;2023-11-22T06:02:15;26.50;;;15.13;;
51943;SDS011;37969;53.132;6.370;2023-11-22T06:04:46;33.40;;;15.82;;
51943;SDS011;37969;53.132;6.370;2023-11-22T06:07:13;29.92;;;14.60;;
51943;SDS011;37969;53.132;6.370;2023-11-22T06:09:42;30.67;;;16.10;;
51943;SDS011;37969;53.132;6.370;2023-11-22T06:12:09;28.08;;;15.20;;
51943;SDS011;37969;53.132;6.370;2023-11-22T06:14:36;29.95;;;16.30;;
51943;SDS011;37969;53.132;6.370;2023-11-22T06:17:02;30.23;;;17.50;;
51943;SDS011;37969;53.132;6.370;2023-11-22T06:19:30;31.02;;;17.98;;
51943;SDS011;37969;53.132;6.370;2023-11-22T06:21:56;37.97;;;18.35;;
51943;SDS011;37969;53.132;6.370;2023-11-22T06:24:25;28.33;;;16.60;;
51943;SDS011;37969;53.132;6.370;2023-11-22T06:26:54;35.28;;;16.98;;
51943;SDS011;37969;53.132;6.370;2023-11-22T06:29:20;32.58;;;18.08;;
51943;SDS011;37969;53.132;6.370;2023-11-22T06:31:46;36.67;;;18.17;;
51943;SDS011;37969;53.132;6.370;2023-11-22T06:34:13;31.17;;;16.88;;
51943;SDS011;37969;53.132;6.370;2023-11-22T06:36:43;33.47;;;18.20;;
51943;SDS011;37969;53.132;6.370;2023-11-22T06:39:11;34.75;;;16.50;;
51943;SDS011;37969;53.132;6.370;2023-11-22T06:41:40;29.48;;;16.95;;
51943;SDS011;37969;53.132;6.370;2023-11-22T06:44:06;31.13;;;16.20;;
51943;SDS011;37969;53.132;6.370;2023-11-22T06:46:35;33.20;;;17.05;;
51943;SDS011;37969;53.132;6.370;2023-11-22T06:49:03;32.45;;;18.20;;
51943;SDS011;37969;53.132;6.370;2023-11-22T06:51:30;45.35;;;19.60;;
51943;SDS011;37969;53.132;6.370;2023-11-22T06:54:00;36.63;;;17.85;;
51943;SDS011;37969;53.132;6.370;2023-11-22T06:56:29;37.25;;;19.80;;
51943;SDS011;37969;53.132;6.370;2023-11-22T06:58:58;45.50;;;19.87;;
51943;SDS011;37969;53.132;6.370;2023-11-22T07:01:29;43.58;;;20.08;;
51943;SDS011;37969;53.132;6.370;2023-11-22T07:03:55;39.15;;;18.13;;
51943;SDS011;37969;53.132;6.370;2023-11-22T07:06:24;40.50;;;19.38;;
51943;SDS011;37969;53.132;6.370;2023-11-22T07:08:52;45.63;;;19.88;;
51943;SDS011;37969;53.132;6.370;2023-11-22T07:11:21;39.03;;;19.80;;
51943;SDS011;37969;53.132;6.370;2023-11-22T07:13:51;42.83;;;20.55;;
51943;SDS011;37969;53.132;6.370;2023-11-22T07:16:20;41.08;;;20.27;;
51943;SDS011;37969;53.132;6.370;2023-11-22T07:18:47;42.03;;;20.85;;
51943;SDS011;37969;53.132;6.370;2023-11-22T07:21:15;46.25;;;20.40;;
51943;SDS011;37969;53.132;6.370;2023-11-22T07:23:43;44.28;;;20.70;;
51943;SDS011;37969;53.132;6.370;2023-11-22T07:26:13;41.90;;;20.17;;
51943;SDS011;37969;53.132;6.370;2023-11-22T07:28:43;51.85;;;23.45;;
51943;SDS011;37969;53.132;6.370;2023-11-22T07:31:09;44.67;;;21.95;;
51943;SDS011;37969;53.132;6.370;2023-11-22T07:33:36;46.65;;;21.55;;
51943;SDS011;37969;53.132;6.370;2023-11-22T07:36:05;48.88;;;22.63;;
51943;SDS011;37969;53.132;6.370;2023-11-22T07:38:33;40.50;;;20.52;;
51943;SDS011;37969;53.132;6.370;2023-11-22T07:41:08;46.78;;;22.05;;
51943;SDS011;37969;53.132;6.370;2023-11-22T07:43:36;44.92;;;22.50;;
51943;SDS011;37969;53.132;6.370;2023-11-22T07:46:06;48.70;;;23.13;;
51943;SDS011;37969;53.132;6.370;2023-11-22T07:48:38;41.45;;;21.17;;
51943;SDS011;37969;53.132;6.370;2023-11-22T07:51:08;45.28;;;22.02;;
51943;SDS011;37969;53.132;6.370;2023-11-22T07:53:35;45.25;;;22.40;;
51943;SDS011;37969;53.132;6.370;2023-11-22T07:56:04;49.22;;;22.50;;
51943;SDS011;37969;53.132;6.370;2023-11-22T07:58:34;44.22;;;22.15;;
51943;SDS011;37969;53.132;6.370;2023-11-22T08:01:04;44.88;;;21.92;;
51943;SDS011;37969;53.132;6.370;2023-11-22T08:03:39;52.47;;;22.67;;
51943;SDS011;37969;53.132;6.370;2023-11-22T08:06:10;43.60;;;21.52;;
51943;SDS011;37969;53.132;6.370;2023-11-22T08:08:39;41.90;;;21.77;;
51943;SDS011;37969;53.132;6.370;2023-11-22T08:11:06;40.63;;;20.67;;
51943;SDS011;37969;53.132;6.370;2023-11-22T08:13:40;40.33;;;21.02;;
51943;SDS011;37969;53.132;6.370;2023-11-22T08:16:13;44.63;;;22.42;;
51943;SDS011;37969;53.132;6.370;2023-11-22T08:18:40;42.53;;;21.65;;
51943;SDS011;37969;53.132;6.370;2023-11-22T08:21:09;48.42;;;21.38;;
51943;SDS011;37969;53.132;6.370;2023-11-22T08:23:43;43.38;;;22.95;;
51943;SDS011;37969;53.132;6.370;2023-11-22T08:26:12;47.40;;;23.42;;
51943;SDS011;37969;53.132;6.370;2023-11-22T08:28:40;44.45;;;23.83;;
51943;SDS011;37969;53.132;6.370;2023-11-22T08:31:09;43.95;;;23.30;;
51943;SDS011;37969;53.132;6.370;2023-11-22T08:33:41;47.50;;;23.77;;
51943;SDS011;37969;53.132;6.370;2023-11-22T08:36:09;44.65;;;24.10;;
51943;SDS011;37969;53.132;6.370;2023-11-22T08:38:36;44.40;;;22.88;;
51943;SDS011;37969;53.132;6.370;2023-11-22T08:41:06;48.00;;;24.60;;
51943;SDS011;37969;53.132;6.370;2023-11-22T08:43:38;49.28;;;25.27;;
51943;SDS011;37969;53.132;6.370;2023-11-22T08:46:07;49.67;;;23.95;;
51943;SDS011;37969;53.132;6.370;2023-11-22T08:48:37;49.97;;;24.38;;
51943;SDS011;37969;53.132;6.370;2023-11-22T08:51:12;44.40;;;24.00;;
51943;SDS011;37969;53.132;6.370;2023-11-22T08:56:11;39.80;;;21.98;;
51943;SDS011;37969;53.132;6.370;2023-11-22T08:58:39;45.47;;;23.25;;
51943;SDS011;37969;53.132;6.370;2023-11-22T09:01:08;41.33;;;23.50;;
51943;SDS011;37969;53.132;6.370;2023-11-22T09:03:35;44.30;;;22.73;;
51943;SDS011;37969;53.132;6.370;2023-11-22T09:06:03;43.05;;;23.05;;
51943;SDS011;37969;53.132;6.370;2023-11-22T09:08:32;41.25;;;23.17;;
51943;SDS011;37969;53.132;6.370;2023-11-22T09:11:01;39.33;;;22.73;;
51943;SDS011;37969;53.132;6.370;2023-11-22T09:13:31;39.20;;;22.15;;
51943;SDS011;37969;53.132;6.370;2023-11-22T09:16:00;39.90;;;21.45;;
51943;SDS011;37969;53.132;6.370;2023-11-22T09:18:32;43.22;;;21.88;;
51943;SDS011;37969;53.132;6.370;2023-11-22T09:21:00;34.50;;;22.00;;
51943;SDS011;37969;53.132;6.370;2023-11-22T09:23:28;38.30;;;21.67;;
51943;SDS011;37969;53.132;6.370;2023-11-22T09:25:57;36.55;;;20.08;;
51943;SDS011;37969;53.132;6.370;2023-11-22T09:28:26;43.35;;;22.45;;
51943;SDS011;37969;53.132;6.370;2023-11-22T09:30:54;35.63;;;20.75;;
51943;SDS011;37969;53.132;6.370;2023-11-22T09:33:31;38.88;;;21.85;;
51943;SDS011;37969;53.132;6.370;2023-11-22T09:35:58;35.78;;;20.30;;
51943;SDS011;37969;53.132;6.370;2023-11-22T09:38:29;48.88;;;21.77;;
51943;SDS011;37969;53.132;6.370;2023-11-22T09:40:55;37.67;;;21.63;;
51943;SDS011;37969;53.132;6.370;2023-11-22T09:43:25;42.67;;;21.27;;
51943;SDS011;37969;53.132;6.370;2023-11-22T09:45:53;37.78;;;21.27;;
51943;SDS011;37969;53.132;6.370;2023-11-22T09:48:22;36.50;;;21.52;;
51943;SDS011;37969;53.132;6.370;2023-11-22T09:51:05;38.22;;;22.00;;
51943;SDS011;37969;53.132;6.370;2023-11-22T09:56:10;35.92;;;21.27;;
51943;SDS011;37969;53.132;6.370;2023-11-22T09:58:44;37.97;;;22.02;;
51943;SDS011;37969;53.132;6.370;2023-11-22T10:01:16;35.17;;;20.55;;
51943;SDS011;37969;53.132;6.370;2023-11-22T10:03:44;33.25;;;20.40;;
51943;SDS011;37969;53.132;6.370;2023-11-22T10:06:21;35.17;;;19.77;;
51943;SDS011;37969;53.132;6.370;2023-11-22T10:08:48;28.85;;;18.45;;
51943;SDS011;37969;53.132;6.370;2023-11-22T10:13:48;30.10;;;18.08;;
51943;SDS011;37969;53.132;6.370;2023-11-22T10:16:18;29.15;;;19.38;;
51943;SDS011;37969;53.132;6.370;2023-11-22T10:18:46;33.47;;;19.40;;
51943;SDS011;37969;53.132;6.370;2023-11-22T10:21:20;32.83;;;19.70;;
51943;SDS011;37969;53.132;6.370;2023-11-22T10:23:49;29.42;;;18.65;;
51943;SDS011;37969;53.132;6.370;2023-11-22T10:26:17;32.75;;;19.25;;
51943;SDS011;37969;53.132;6.370;2023-11-22T10:28:44;30.58;;;18.25;;
51943;SDS011;37969;53.132;6.370;2023-11-22T10:31:14;30.27;;;19.20;;
51943;SDS011;37969;53.132;6.370;2023-11-22T10:33:43;26.48;;;17.40;;
51943;SDS011;37969;53.132;6.370;2023-11-22T10:36:11;25.38;;;17.65;;
51943;SDS011;37969;53.132;6.370;2023-11-22T10:38:40;29.27;;;17.63;;
51943;SDS011;37969;53.132;6.370;2023-11-22T10:41:11;23.27;;;15.85;;
51943;SDS011;37969;53.132;6.370;2023-11-22T10:43:40;23.50;;;16.67;;
51943;SDS011;37969;53.132;6.370;2023-11-22T10:46:07;26.17;;;16.88;;
51943;SDS011;37969;53.132;6.370;2023-11-22T10:48:35;23.88;;;16.08;;
51943;SDS011;37969;53.132;6.370;2023-11-22T10:51:02;25.67;;;15.18;;
51943;SDS011;37969;53.132;6.370;2023-11-22T10:53:32;23.55;;;15.05;;
51943;SDS011;37969;53.132;6.370;2023-11-22T10:56:07;22.98;;;15.65;;
51943;SDS011;37969;53.132;6.370;2023-11-22T10:58:37;21.98;;;14.60;;
51943;SDS011;37969;53.132;6.370;2023-11-22T11:01:06;24.10;;;14.68;;
51943;SDS011;37969;53.132;6.370;2023-11-22T11:03:33;18.63;;;13.80;;
51943;SDS011;37969;53.132;6.370;2023-11-22T11:06:05;21.77;;;13.90;;
51943;SDS011;37969;53.132;6.370;2023-11-22T11:08:38;17.40;;;13.07;;
51943;SDS011;37969;53.132;6.370;2023-11-22T11:11:05;16.80;;;12.23;;
51943;SDS011;37969;53.132;6.370;2023-11-22T11:13:34;18.40;;;12.60;;
51943;SDS011;37969;53.132;6.370;2023-11-22T11:16:04;16.95;;;11.63;;
51943;SDS011;37969;53.132;6.370;2023-11-22T11:18:31;18.95;;;13.57;;
51943;SDS011;37969;53.132;6.370;2023-11-22T11:20:59;20.67;;;12.88;;
51943;SDS011;37969;53.132;6.370;2023-11-22T11:23:26;17.98;;;11.32;;
51943;SDS011;37969;53.132;6.370;2023-11-22T11:25:54;18.75;;;11.93;;
51943;SDS011;37969;53.132;6.370;2023-11-22T11:28:24;16.17;;;11.80;;
51943;SDS011;37969;53.132;6.370;2023-11-22T11:30:53;17.67;;;11.50;;
51943;SDS011;37969;53.132;6.370;2023-11-22T11:33:27;18.33;;;11.48;;
51943;SDS011;37969;53.132;6.370;2023-11-22T11:35:54;15.32;;;11.30;;
51943;SDS011;37969;53.132;6.370;2023-11-22T11:38:26;17.05;;;12.32;;
51943;SDS011;37969;53.132;6.370;2023-11-22T11:41:05;13.18;;;10.40;;
51943;SDS011;37969;53.132;6.370;2023-11-22T11:43:39;15.00;;;11.55;;
51943;SDS011;37969;53.132;6.370;2023-11-22T11:46:07;16.23;;;11.10;;
51943;SDS011;37969;53.132;6.370;2023-11-22T11:51:06;14.95;;;11.00;;
51943;SDS011;37969;53.132;6.370;2023-11-22T11:53:33;16.77;;;10.77;;
51943;SDS011;37969;53.132;6.370;2023-11-22T11:55:59;16.05;;;11.35;;
51943;SDS011;37969;53.132;6.370;2023-11-22T11:58:25;15.90;;;11.23;;
51943;SDS011;37969;53.132;6.370;2023-11-22T12:00:52;15.15;;;11.50;;
51943;SDS011;37969;53.132;6.370;2023-11-22T12:03:19;13.75;;;10.55;;
51943;SDS011;37969;53.132;6.370;2023-11-22T12:05:46;13.23;;;10.23;;
51943;SDS011;37969;53.132;6.370;2023-11-22T12:08:14;16.75;;;10.40;;
51943;SDS011;37969;53.132;6.370;2023-11-22T12:10:43;15.75;;;10.15;;
51943;SDS011;37969;53.132;6.370;2023-11-22T12:13:16;13.98;;;10.25;;
51943;SDS011;37969;53.132;6.370;2023-11-22T12:15:47;13.43;;;9.60;;
51943;SDS011;37969;53.132;6.370;2023-11-22T12:18:14;14.32;;;10.52;;
51943;SDS011;37969;53.132;6.370;2023-11-22T12:20:42;15.60;;;10.45;;
51943;SDS011;37969;53.132;6.370;2023-11-22T12:23:21;14.17;;;11.07;;
51943;SDS011;37969;53.132;6.370;2023-11-22T12:25:47;15.05;;;11.05;;
51943;SDS011;37969;53.132;6.370;2023-11-22T12:28:16;14.88;;;10.25;;
51943;SDS011;37969;53.132;6.370;2023-11-22T12:30:44;15.55;;;10.68;;
51943;SDS011;37969;53.132;6.370;2023-11-22T12:33:10;15.73;;;11.18;;
51943;SDS011;37969;53.132;6.370;2023-11-22T12:35:42;18.60;;;10.70;;
51943;SDS011;37969;53.132;6.370;2023-11-22T12:38:09;15.13;;;10.65;;
51943;SDS011;37969;53.132;6.370;2023-11-22T12:40:35;15.27;;;10.40;;
51943;SDS011;37969;53.132;6.370;2023-11-22T12:43:04;11.75;;;10.07;;
51943;SDS011;37969;53.132;6.370;2023-11-22T12:45:33;14.90;;;10.48;;
51943;SDS011;37969;53.132;6.370;2023-11-22T12:48:25;12.70;;;10.38;;
51943;SDS011;37969;53.132;6.370;2023-11-22T12:50:55;14.52;;;10.45;;
51943;SDS011;37969;53.132;6.370;2023-11-22T12:53:22;16.15;;;10.25;;
51943;SDS011;37969;53.132;6.370;2023-11-22T12:55:53;15.63;;;9.98;;
51943;SDS011;37969;53.132;6.370;2023-11-22T12:58:21;13.70;;;10.48;;
51943;SDS011;37969;53.132;6.370;2023-11-22T13:00:49;16.42;;;11.25;;
51943;SDS011;37969;53.132;6.370;2023-11-22T13:03:15;14.90;;;10.75;;
51943;SDS011;37969;53.132;6.370;2023-11-22T13:05:44;16.98;;;10.70;;
51943;SDS011;37969;53.132;6.370;2023-11-22T13:08:11;16.98;;;11.05;;
51943;SDS011;37969;53.132;6.370;2023-11-22T13:10:39;15.95;;;10.90;;
51943;SDS011;37969;53.132;6.370;2023-11-22T13:15:35;17.58;;;11.00;;
51943;SDS011;37969;53.132;6.370;2023-11-22T13:18:02;13.02;;;10.38;;
51943;SDS011;37969;53.132;6.370;2023-11-22T13:20:31;14.95;;;10.70;;
51943;SDS011;37969;53.132;6.370;2023-11-22T13:22:59;15.65;;;11.57;;
51943;SDS011;37969;53.132;6.370;2023-11-22T13:25:25;13.95;;;11.30;;
51943;SDS011;37969;53.132;6.370;2023-11-22T13:27:54;17.30;;;11.52;;
51943;SDS011;37969;53.132;6.370;2023-11-22T13:30:24;17.77;;;11.68;;
51943;SDS011;37969;53.132;6.370;2023-11-22T13:32:52;19.88;;;12.13;;
51943;SDS011;37969;53.132;6.370;2023-11-22T13:35:24;15.48;;;11.73;;
51943;SDS011;37969;53.132;6.370;2023-11-22T13:37:56;15.93;;;11.70;;
51943;SDS011;37969;53.132;6.370;2023-11-22T13:40:24;18.25;;;13.00;;
51943;SDS011;37969;53.132;6.370;2023-11-22T13:42:55;16.30;;;12.65;;
51943;SDS011;37969;53.132;6.370;2023-11-22T13:45:24;18.65;;;13.18;;
51943;SDS011;37969;53.132;6.370;2023-11-22T13:47:54;19.88;;;13.00;;
51943;SDS011;37969;53.132;6.370;2023-11-22T13:50:28;16.98;;;12.60;;
51943;SDS011;37969;53.132;6.370;2023-11-22T13:52:56;23.33;;;13.57;;
51943;SDS011;37969;53.132;6.370;2023-11-22T13:55:23;16.45;;;12.75;;
51943;SDS011;37969;53.132;6.370;2023-11-22T13:57:53;17.02;;;12.98;;
51943;SDS011;37969;53.132;6.370;2023-11-22T14:00:22;19.70;;;13.23;;
51943;SDS011;37969;53.132;6.370;2023-11-22T14:02:53;18.52;;;13.82;;
51943;SDS011;37969;53.132;6.370;2023-11-22T14:05:21;18.90;;;13.30;;
51943;SDS011;37969;53.132;6.370;2023-11-22T14:07:49;18.10;;;13.52;;
51943;SDS011;37969;53.132;6.370;2023-11-22T14:10:19;17.95;;;13.73;;
51943;SDS011;37969;53.132;6.370;2023-11-22T14:12:48;19.02;;;12.95;;
51943;SDS011;37969;53.132;6.370;2023-11-22T14:15:15;21.17;;;14.05;;
51943;SDS011;37969;53.132;6.370;2023-11-22T14:17:42;18.25;;;13.15;;
51943;SDS011;37969;53.132;6.370;2023-11-22T14:20:16;19.35;;;13.93;;
51943;SDS011;37969;53.132;6.370;2023-11-22T14:22:43;19.67;;;13.55;;
51943;SDS011;37969;53.132;6.370;2023-11-22T14:25:10;18.55;;;12.73;;
51943;SDS011;37969;53.132;6.370;2023-11-22T14:27:38;21.33;;;14.88;;
51943;SDS011;37969;53.132;6.370;2023-11-22T14:30:09;18.25;;;12.57;;
51943;SDS011;37969;53.132;6.370;2023-11-22T14:32:40;20.67;;;13.70;;
51943;SDS011;37969;53.132;6.370;2023-11-22T14:35:07;20.35;;;14.35;;
51943;SDS011;37969;53.132;6.370;2023-11-22T14:37:34;18.02;;;12.63;;
51943;SDS011;37969;53.132;6.370;2023-11-22T14:40:05;19.50;;;12.80;;
51943;SDS011;37969;53.132;6.370;2023-11-22T14:42:42;18.00;;;13.10;;
51943;SDS011;37969;53.132;6.370;2023-11-22T14:45:17;20.58;;;13.38;;
51943;SDS011;37969;53.132;6.370;2023-11-22T14:47:51;17.05;;;13.50;;
51943;SDS011;37969;53.132;6.370;2023-11-22T14:50:19;22.23;;;14.35;;